Time;durP1;ratioP1;P1;durP2;ratioP2;P2;SDS_P1;SDS_P2;PMS_P1;PMS_P2;Temp;Humidity;BMP_temperature;BMP_pressure;BME280_temperature;BME280_humidity;BME280_pressure;Samples;Min_cycle;Max_cycle;Signal;HPM_P1;HPM_P2
2021/06/20 00:01:11;;;;;;;4.85;3.35;;;;;;;15.56;100.00;94633.66;10532604;28;20073;-73
2021/06/20 00:06:39;;;;;;;4.18;3.60;;;;;;;15.62;100.00;94618.88;10532490;28;20062;-73
2021/06/20 00:11:42;;;;;;;4.75;3.25;;;;;;;15.46;100.00;94610.34;10529310;28;20143;-73
2021/06/20 00:16:43;;;;;;;4.97;2.35;;;;;;;15.41;100.00;94605.03;10530803;28;20031;-73
2021/06/20 00:21:43;;;;;;;3.92;2.47;;;;;;;15.35;100.00;94600.84;10530276;28;20035;-73
2021/06/20 00:26:44;;;;;;;7.63;2.33;;;;;;;15.48;100.00;94615.44;10531579;28;20107;-73
2021/06/20 00:31:44;;;;;;;9.98;3.05;;;;;;;15.54;100.00;94608.78;10530604;28;20039;-73
2021/06/20 00:36:45;;;;;;;4.50;3.33;;;;;;;15.65;100.00;94625.59;10531485;28;20036;-73
2021/06/20 00:41:45;;;;;;;3.43;2.60;;;;;;;15.72;100.00;94618.63;10530905;28;20024;-73
2021/06/20 00:46:45;;;;;;;4.50;3.33;;;;;;;15.72;100.00;94610.50;10529621;28;20135;-73
2021/06/20 00:51:46;;;;;;;10.07;2.80;;;;;;;15.59;100.00;94594.34;10531266;28;20020;-73
2021/06/20 00:56:46;;;;;;;4.55;2.83;;;;;;;15.51;100.00;94602.06;10530900;28;20046;-73
2021/06/20 01:01:47;;;;;;;6.73;3.13;;;;;;;15.50;100.00;94596.97;10530698;28;20018;-73
2021/06/20 01:06:47;;;;;;;3.80;2.80;;;;;;;15.42;100.00;94589.56;10530898;28;20036;-73
2021/06/20 01:11:48;;;;;;;4.20;3.70;;;;;;;15.26;100.00;94581.00;10530267;28;20031;-73
2021/06/20 01:16:53;;;;;;;5.37;3.67;;;;;;;15.19;100.00;94587.63;10530286;28;20282;-73
2021/06/20 01:21:54;;;;;;;5.15;3.35;;;;;;;15.25;100.00;94582.13;10530090;28;20792;-73
2021/06/20 01:26:55;;;;;;;8.15;3.22;;;;;;;15.32;100.00;94593.31;10529301;28;20142;-73
2021/06/20 01:31:57;;;;;;;7.45;3.17;;;;;;;15.29;100.00;94581.19;10529126;28;20109;-73
2021/06/20 01:36:57;;;;;;;10.68;3.47;;;;;;;15.14;100.00;94595.91;10529551;28;20027;-73
2021/06/20 01:41:58;;;;;;;4.15;3.13;;;;;;;15.07;100.00;94603.63;10528878;28;20043;-73
2021/06/20 01:46:58;;;;;;;4.97;3.50;;;;;;;15.19;100.00;94608.50;10529111;28;20068;-73
2021/06/20 01:51:58;;;;;;;5.23;3.40;;;;;;;15.29;100.00;94602.06;10529132;28;20116;-73
2021/06/20 01:56:59;;;;;;;4.87;3.57;;;;;;;15.29;100.00;94610.97;10527600;28;20036;-73
2021/06/20 02:02:00;;;;;;;5.00;3.90;;;;;;;15.19;100.00;94608.50;10526558;28;20016;-73
2021/06/20 02:07:00;;;;;;;6.45;3.55;;;;;;;14.88;100.00;94614.59;10527970;28;20513;-74
2021/06/20 02:12:01;;;;;;;6.93;3.90;;;;;;;14.79;100.00;94622.63;10527193;28;20085;-74
2021/06/20 02:17:13;;;;;;;6.93;4.03;;;;;;;14.88;100.00;94624.63;10528220;28;20077;-73
2021/06/20 02:22:14;;;;;;;8.07;4.28;;;;;;;14.87;100.00;94629.22;10528429;28;20032;-73
2021/06/20 02:27:15;;;;;;;5.85;4.25;;;;;;;14.89;100.00;94637.03;10528508;28;20036;-73
2021/06/20 02:32:16;;;;;;;6.72;4.25;;;;;;;14.70;100.00;94627.13;10528014;28;20063;-73
2021/06/20 02:37:17;;;;;;;6.70;4.70;;;;;;;14.58;100.00;94630.31;10533103;28;20043;-73
2021/06/20 02:42:18;;;;;;;7.55;4.22;;;;;;;14.62;100.00;94628.63;10535226;28;20039;-73
2021/06/20 02:47:19;;;;;;;10.63;4.80;;;;;;;14.67;100.00;94633.16;10535043;28;20028;-74
2021/06/20 02:52:20;;;;;;;7.95;3.97;;;;;;;14.61;100.00;94631.59;10535933;28;20043;-73
2021/06/20 02:57:26;;;;;;;9.20;4.72;;;;;;;14.65;100.00;94627.22;10536091;28;20024;-73
2021/06/20 03:02:27;;;;;;;6.88;4.78;;;;;;;14.58;100.00;94632.22;10535391;28;20100;-73
2021/06/20 03:07:27;;;;;;;13.33;4.57;;;;;;;14.49;100.00;94637.53;10534111;28;20737;-73
2021/06/20 03:12:28;;;;;;;18.75;5.35;;;;;;;14.51;100.00;94633.44;10535131;28;20383;-73
2021/06/20 03:17:28;;;;;;;8.40;5.20;;;;;;;14.53;100.00;94622.31;10534919;28;20104;-73
2021/06/20 03:22:29;;;;;;;13.07;5.03;;;;;;;14.75;100.00;94618.09;10534934;28;20027;-73
2021/06/20 03:27:29;;;;;;;9.63;4.73;;;;;;;14.71;100.00;94620.63;10534841;28;20403;-73
2021/06/20 03:32:30;;;;;;;9.63;4.47;;;;;;;14.70;100.00;94606.28;10534221;28;20313;-74
2021/06/20 03:37:30;;;;;;;14.03;5.40;;;;;;;14.63;100.00;94614.00;10533685;28;20085;-73
2021/06/20 03:42:30;;;;;;;14.07;5.77;;;;;;;14.67;100.00;94622.34;10531467;28;20020;-73
2021/06/20 03:47:32;;;;;;;14.27;5.47;;;;;;;14.70;100.00;94609.00;10531195;28;20036;-74
2021/06/20 03:52:32;;;;;;;13.82;6.00;;;;;;;14.61;100.00;94613.50;10532847;28;20032;-73
2021/06/20 03:57:33;;;;;;;7.65;5.25;;;;;;;14.82;100.00;94611.19;10532035;28;20054;-73
2021/06/20 04:02:33;;;;;;;40.03;5.25;;;;;;;15.02;100.00;94609.16;10533383;28;20798;-73
2021/06/20 04:07:34;;;;;;;13.25;7.07;;;;;;;15.19;100.00;94606.59;10532806;28;20534;-73
2021/06/20 04:12:34;;;;;;;4.97;3.90;;;;;;;15.43;100.00;94607.41;10532693;28;20042;-73
2021/06/20 04:17:35;;;;;;;5.63;3.77;;;;;;;15.81;100.00;94590.81;10532786;28;20788;-74
2021/06/20 04:22:35;;;;;;;7.00;2.88;;;;;;;16.45;100.00;94595.94;10532372;28;20020;-73
2021/06/20 04:27:36;;;;;;;13.68;3.63;;;;;;;17.11;100.00;94589.72;10532021;28;20498;-74
2021/06/20 04:32:37;;;;;;;9.17;3.23;;;;;;;17.82;100.00;94594.00;10532195;28;20058;-74
2021/06/20 04:37:39;;;;;;;3.28;2.67;;;;;;;18.22;100.00;94596.50;10531976;28;20387;-74
2021/06/20 04:42:41;;;;;;;3.72;2.35;;;;;;;18.84;100.00;94588.84;10531696;28;20426;-73
2021/06/20 04:47:42;;;;;;;4.80;2.55;;;;;;;19.62;100.00;94581.28;10531455;28;20111;-73
2021/06/20 04:52:43;;;;;;;6.38;2.80;;;;;;;20.27;100.00;94600.69;10546551;28;20036;-74
2021/06/20 04:57:43;;;;;;;9.50;4.80;;;;;;;20.62;100.00;94605.75;10529795;28;20039;-74
2021/06/20 05:02:44;;;;;;;8.37;4.60;;;;;;;21.11;100.00;94601.44;10530849;28;20024;-74
2021/06/20 05:07:44;;;;;;;10.77;4.80;;;;;;;21.53;100.00;94614.84;10530133;28;20046;-74
2021/06/20 05:12:45;;;;;;;11.57;5.13;;;;;;;22.12;100.00;94612.56;10529999;28;20078;-74
2021/06/20 05:17:45;;;;;;;5.15;4.38;;;;;;;22.43;100.00;94608.28;10529628;28;20036;-74
2021/06/20 05:22:45;;;;;;;11.63;5.90;;;;;;;22.61;100.00;94609.53;10529519;28;20106;-74
2021/06/20 05:27:46;;;;;;;5.97;4.60;;;;;;;22.95;100.00;94614.66;10529145;28;20115;-74
2021/06/20 05:32:49;;;;;;;9.05;4.97;;;;;;;23.32;100.00;94606.91;10529784;28;20098;-74
2021/06/20 05:37:49;;;;;;;10.88;4.40;;;;;;;23.74;100.00;94610.16;10529387;28;20387;-74
2021/06/20 05:42:50;;;;;;;4.40;2.53;;;;;;;24.05;100.00;94610.00;10529247;28;20027;-74
2021/06/20 05:47:50;;;;;;;5.05;2.70;;;;;;;22.61;100.00;94612.28;10529466;28;20024;-74
2021/06/20 05:52:52;;;;;;;14.70;4.27;;;;;;;21.98;100.00;94605.53;10528905;28;20028;-74
2021/06/20 05:57:52;;;;;;;3.30;2.78;;;;;;;21.49;100.00;94603.75;10529098;28;20028;-74
2021/06/20 06:02:53;;;;;;;6.40;3.77;;;;;;;21.02;100.00;94598.81;10529244;28;20080;-74
2021/06/20 06:07:54;;;;;;;6.43;3.47;;;;;;;20.86;100.00;94590.53;10527079;28;20070;-74
2021/06/20 06:12:59;;;;;;;10.32;6.20;;;;;;;20.68;100.00;94589.16;10528075;28;20036;-74
2021/06/20 06:17:59;;;;;;;11.85;4.97;;;;;;;20.78;100.00;94581.31;10527066;28;20068;-74
2021/06/20 06:23:00;;;;;;;6.72;5.03;;;;;;;20.82;100.00;94576.75;10528259;28;20456;-73
2021/06/20 06:28:01;;;;;;;11.23;6.05;;;;;;;20.73;100.00;94575.28;10528340;28;20032;-73
2021/06/20 06:33:04;;;;;;;11.07;6.07;;;;;;;20.69;100.00;94568.91;10528093;28;20144;-73
2021/06/20 06:38:05;;;;;;;9.48;5.40;;;;;;;20.62;100.00;94559.34;10527991;28;20100;-73
2021/06/20 06:43:05;;;;;;;5.53;4.50;;;;;;;22.68;100.00;94565.88;10527824;28;20016;-74
2021/06/20 06:48:06;;;;;;;11.93;3.83;;;;;;;24.89;100.00;94571.03;10528104;28;20783;-73
2021/06/20 06:53:07;;;;;;;4.55;2.90;;;;;;;26.76;95.50;94578.84;10526469;28;20081;-74
2021/06/20 06:58:07;;;;;;;6.57;3.53;;;;;;;27.33;87.31;94576.88;10527487;28;20372;-74
2021/06/20 07:03:07;;;;;;;11.13;2.50;;;;;;;27.74;75.69;94580.28;10526219;28;20676;-73
2021/06/20 07:08:08;;;;;;;3.00;2.17;;;;;;;29.02;69.55;94574.63;10526843;28;20028;-74
2021/06/20 07:13:08;;;;;;;3.95;1.60;;;;;;;29.52;57.07;94570.25;10525659;28;20645;-74
2021/06/20 07:18:09;;;;;;;5.77;1.67;;;;;;;30.71;55.27;94569.69;10526072;28;20077;-74
2021/06/20 07:23:09;;;;;;;4.27;1.33;;;;;;;31.32;47.42;94558.06;10531305;28;20027;-74
2021/06/20 07:28:10;;;;;;;2.27;1.00;;;;;;;31.86;41.31;94546.41;10534287;28;20039;-72
2021/06/20 07:33:10;;;;;;;3.08;1.23;;;;;;;32.30;40.94;94539.06;10532934;28;20050;-72
2021/06/20 07:38:11;;;;;;;1.57;0.60;;;;;;;32.62;42.15;94546.16;10532565;28;20109;-72
2021/06/20 07:43:11;;;;;;;3.75;1.30;;;;;;;32.28;44.50;94529.59;10532580;28;20266;-73
2021/06/20 07:48:12;;;;;;;1.77;0.90;;;;;;;33.20;42.49;94520.97;10531924;28;20023;-72
2021/06/20 07:53:12;;;;;;;1.70;1.10;;;;;;;33.47;38.90;94524.88;10531865;28;20032;-73
2021/06/20 07:58:13;;;;;;;1.63;0.90;;;;;;;34.49;36.41;94519.56;10531705;28;20343;-73
2021/06/20 08:03:13;;;;;;;0.83;0.60;;;;;;;34.11;37.04;94516.44;10531720;28;20028;-73
2021/06/20 08:08:16;;;;;;;3.17;1.02;;;;;;;32.72;38.44;94527.75;10532782;28;20035;-73
2021/06/20 08:13:16;;;;;;;1.23;1.10;;;;;;;32.65;38.35;94525.81;10531914;28;20028;-73
2021/06/20 08:18:17;;;;;;;1.07;0.97;;;;;;;33.42;37.11;94515.00;10531978;28;20411;-73
2021/06/20 08:23:17;;;;;;;2.50;1.20;;;;;;;34.41;37.50;94518.16;10531911;28;20024;-73
2021/06/20 08:28:17;;;;;;;4.00;1.00;;;;;;;34.66;39.28;94520.38;10531956;28;20032;-73
2021/06/20 08:33:18;;;;;;;5.13;0.80;;;;;;;35.88;35.88;94524.84;10531097;28;20071;-73
2021/06/20 08:38:18;;;;;;;2.22;1.35;;;;;;;35.08;34.79;94525.34;10531202;28;20028;-73
2021/06/20 08:43:19;;;;;;;1.00;0.80;;;;;;;34.85;35.39;94529.13;10530282;28;20395;-73
2021/06/20 08:48:21;;;;;;;2.55;0.70;;;;;;;33.95;37.15;94525.53;10531575;28;20036;-73
2021/06/20 08:53:21;;;;;;;3.72;1.05;;;;;;;35.04;36.65;94524.66;10531372;28;20047;-73
2021/06/20 08:58:26;;;;;;;4.60;1.10;;;;;;;35.08;35.84;94516.97;10530448;28;20039;-73
2021/06/20 09:03:56;;;;;;;1.10;1.00;;;;;;;35.99;32.67;94510.56;10530918;28;20380;-73
2021/06/20 09:08:59;;;;;;;2.55;0.80;;;;;;;34.65;35.25;94515.22;10515727;28;20059;-73
2021/06/20 09:14:11;;;;;;;2.95;1.20;;;;;;;35.74;35.15;94502.88;10530399;28;20039;-73
2021/06/20 09:19:11;;;;;;;1.23;0.70;;;;;;;36.93;31.97;94507.69;10530344;28;20028;-73
2021/06/20 09:24:17;;;;;;;2.25;0.70;;;;;;;36.45;31.38;94493.59;10530165;28;20046;-73
2021/06/20 09:29:45;;;;;;;2.55;0.90;;;;;;;35.57;35.00;94504.91;10528788;28;20027;-73
2021/06/20 09:34:48;;;;;;;3.38;0.85;;;;;;;33.42;37.91;94509.44;10527655;28;20047;-73
2021/06/20 09:39:48;;;;;;;1.75;1.25;;;;;;;30.07;42.29;94505.91;10528671;28;20100;-73
2021/06/20 09:44:54;;;;;;;9.07;1.53;;;;;;;28.20;56.87;94506.22;10528980;28;20073;-72
2021/06/20 09:49:55;;;;;;;3.40;1.00;;;;;;;28.21;56.36;94507.81;10528928;28;20430;-73
2021/06/20 09:54:58;;;;;;;2.78;1.23;;;;;;;27.26;62.72;94498.38;10529553;28;20031;-72
2021/06/20 10:00:00;;;;;;;1.33;1.10;;;;;;;27.29;65.19;94500.38;10527825;28;20032;-72
2021/06/20 10:05:01;;;;;;;0.88;0.75;;;;;;;26.54;62.23;94497.09;10527107;28;20032;-72
2021/06/20 10:10:05;;;;;;;2.30;1.10;;;;;;;26.51;68.27;94486.84;10528212;28;20020;-72
2021/06/20 10:15:12;;;;;;;2.25;1.60;;;;;;;26.92;76.34;94482.06;10527861;28;20134;-72
2021/06/20 10:20:14;;;;;;;2.78;1.45;;;;;;;27.05;70.25;94471.47;10528734;28;20066;-72
2021/06/20 10:25:40;;;;;;;4.15;1.40;;;;;;;27.22;66.55;94464.47;10527606;28;20467;-72
2021/06/20 10:30:45;;;;;;;3.88;0.95;;;;;;;27.04;72.15;94467.13;10541664;28;20024;-72
2021/06/20 10:36:01;;;;;;;3.13;1.23;;;;;;;27.49;67.24;94468.94;10527330;28;20392;-72
2021/06/20 10:41:02;;;;;;;1.88;1.45;;;;;;;28.42;64.50;94463.59;10527677;28;20028;-72
2021/06/20 10:46:14;;;;;;;2.75;1.20;;;;;;;28.43;65.82;94459.66;10527730;28;20024;-72
2021/06/20 10:51:19;;;;;;;1.48;1.02;;;;;;;28.50;64.30;94452.56;10527318;28;20387;-73
2021/06/20 10:56:28;;;;;;;2.95;1.77;;;;;;;30.79;50.06;94433.25;10528791;28;20407;-73
2021/06/20 11:01:37;;;;;;;3.10;0.95;;;;;;;31.67;48.00;94434.66;10535354;28;20024;-73
2021/06/20 11:06:38;;;;;;;4.10;1.30;;;;;;;30.39;51.69;94427.25;10535055;28;20028;-73
2021/06/20 11:12:02;;;;;;;2.65;1.20;;;;;;;29.07;58.02;94419.28;10535412;28;20028;-72
2021/06/20 11:17:07;;;;;;;1.38;1.00;;;;;;;28.88;59.84;94412.22;10534841;28;20055;-72
2021/06/20 11:22:10;;;;;;;1.00;0.90;;;;;;;27.70;53.98;94410.22;10535013;28;20034;-72
2021/06/20 11:27:13;;;;;;;1.00;0.80;;;;;;;28.01;59.35;94399.66;10534613;28;20089;-72
2021/06/20 11:32:17;;;;;;;1.40;1.10;;;;;;;28.23;58.48;94408.72;10534297;28;20156;-72
2021/06/20 11:37:26;;;;;;;0.98;0.60;;;;;;;27.78;52.48;94404.34;10533910;28;20454;-72
2021/06/20 11:42:29;;;;;;;1.00;0.63;;;;;;;27.24;54.23;94398.66;10534230;28;20059;-72
2021/06/20 11:47:39;;;;;;;1.23;0.60;;;;;;;26.76;54.68;94390.56;10546078;28;20108;-72
2021/06/20 11:52:47;;;;;;;1.17;1.02;;;;;;;26.13;61.21;94389.75;10533476;28;20020;-72
2021/06/20 11:57:49;;;;;;;2.05;1.13;;;;;;;26.16;65.58;94377.97;10547564;28;20028;-72
2021/06/20 12:03:11;;;;;;;2.42;1.25;;;;;;;26.03;64.31;94374.72;10532233;28;20028;-72
2021/06/20 12:08:12;;;;;;;2.28;0.93;;;;;;;25.54;67.29;94382.13;10530832;28;20471;-72
2021/06/20 12:13:13;;;;;;;3.20;1.83;;;;;;;25.58;72.19;94374.69;10531337;28;20024;-72
2021/06/20 12:18:15;;;;;;;2.25;1.50;;;;;;;25.59;75.29;94363.31;10530979;28;20081;-72
2021/06/20 12:23:28;;;;;;;5.03;1.55;;;;;;;25.84;91.87;94359.19;10532349;28;20020;-72
2021/06/20 12:28:30;;;;;;;2.88;1.00;;;;;;;25.71;75.59;94362.22;10531785;28;20164;-73
2021/06/20 12:33:30;;;;;;;2.60;1.30;;;;;;;25.93;75.02;94362.41;10531616;28;20040;-73
2021/06/20 12:38:34;;;;;;;1.30;1.10;;;;;;;26.24;79.97;94360.31;10531208;28;20024;-73
2021/06/20 12:43:34;;;;;;;1.40;1.10;;;;;;;26.28;70.89;94372.16;10531276;28;20454;-73
2021/06/20 12:48:37;;;;;;;2.73;1.10;;;;;;;26.35;71.43;94366.69;10531533;28;20032;-73
2021/06/20 12:53:43;;;;;;;2.08;1.10;;;;;;;26.42;77.42;94358.44;10530920;28;20028;-73
2021/06/20 12:58:55;;;;;;;2.20;1.13;;;;;;;26.23;81.06;94359.53;10530992;28;20020;-73
2021/06/20 13:04:15;;;;;;;4.45;1.13;;;;;;;26.00;79.64;94353.44;10530829;28;20542;-73
2021/06/20 13:09:16;;;;;;;2.42;1.30;;;;;;;25.90;76.63;94355.72;10530435;28;20036;-73
2021/06/20 13:14:19;;;;;;;3.13;1.40;;;;;;;25.86;86.14;94357.63;10530229;28;20028;-73
2021/06/20 13:19:20;;;;;;;1.42;1.30;;;;;;;25.81;96.25;94359.97;10529455;28;20031;-73
2021/06/20 13:24:21;;;;;;;1.75;0.98;;;;;;;25.63;96.31;94379.84;10529653;28;20016;-73
2021/06/20 13:29:21;;;;;;;3.03;1.40;;;;;;;25.23;93.82;94367.63;10528998;28;20027;-73
2021/06/20 13:34:21;;;;;;;3.90;1.40;;;;;;;24.88;98.19;94374.28;10527546;28;20525;-73
2021/06/20 13:39:22;;;;;;;5.07;1.60;;;;;;;24.81;100.00;94387.94;10528763;28;20054;-73
2021/06/20 13:44:22;;;;;;;6.53;2.40;;;;;;;24.44;100.00;94403.13;10527649;28;20097;-73
2021/06/20 13:49:23;;;;;;;5.18;1.98;;;;;;;23.92;100.00;94405.47;10526978;28;20020;-73
2021/06/20 13:54:23;;;;;;;2.85;2.00;;;;;;;23.63;100.00;94410.44;10528112;28;20039;-73
2021/06/20 13:59:24;;;;;;;7.43;2.27;;;;;;;23.18;100.00;94393.53;10528462;28;20086;-73
2021/06/20 14:04:24;;;;;;;2.22;1.77;;;;;;;22.89;100.00;94383.16;10528470;28;20800;-73
2021/06/20 14:09:24;;;;;;;4.90;2.20;;;;;;;22.14;100.00;94372.91;10528686;28;20024;-73
2021/06/20 14:14:25;;;;;;;2.23;1.80;;;;;;;21.25;100.00;94371.47;10528429;28;20344;-73
2021/06/20 14:19:25;;;;;;;5.67;2.17;;;;;;;20.82;100.00;94377.38;10528219;28;20027;-72
2021/06/20 14:24:26;;;;;;;4.32;2.80;;;;;;;20.59;100.00;94385.25;10528277;28;20622;-73
2021/06/20 14:29:26;;;;;;;8.20;2.43;;;;;;;20.76;100.00;94397.88;10528264;28;20475;-72
2021/06/20 14:34:27;;;;;;;5.10;2.13;;;;;;;21.31;100.00;94381.81;10536379;28;20492;-73
2021/06/20 14:39:27;;;;;;;3.37;1.90;;;;;;;21.59;100.00;94389.19;10536479;28;20020;-73
2021/06/20 14:44:28;;;;;;;4.70;2.10;;;;;;;21.67;100.00;94376.47;10536381;28;20024;-73
2021/06/20 14:49:28;;;;;;;5.72;2.00;;;;;;;21.73;100.00;94371.56;10536567;28;20073;-73
2021/06/20 14:54:29;;;;;;;7.97;1.77;;;;;;;21.88;100.00;94376.22;10535899;28;20520;-73
2021/06/20 14:59:29;;;;;;;2.67;1.57;;;;;;;21.92;100.00;94362.63;10536267;28;20494;-73
2021/06/20 15:04:29;;;;;;;5.03;1.80;;;;;;;21.99;100.00;94360.84;10535400;28;20437;-73
2021/06/20 15:09:30;;;;;;;7.53;1.87;;;;;;;21.87;100.00;94368.38;10535142;28;20110;-73
2021/06/20 15:14:30;;;;;;;4.18;1.50;;;;;;;21.94;100.00;94380.28;10535325;28;20056;-73
2021/06/20 15:19:30;;;;;;;4.28;2.45;;;;;;;22.23;100.00;94380.94;10534795;28;20524;-73
2021/06/20 15:24:31;;;;;;;2.33;1.63;;;;;;;22.52;100.00;94365.97;10534349;28;20126;-73
2021/06/20 15:29:32;;;;;;;4.35;2.47;;;;;;;22.64;100.00;94367.00;10534594;28;20274;-73
2021/06/20 15:34:32;;;;;;;4.15;1.38;;;;;;;22.35;100.00;94372.66;10534247;28;20499;-73
2021/06/20 15:39:32;;;;;;;3.80;1.83;;;;;;;22.32;100.00;94365.09;10534024;28;20023;-73
2021/06/20 15:44:34;;;;;;;6.47;2.10;;;;;;;22.40;100.00;94359.84;10532735;28;20028;-73
2021/06/20 15:49:34;;;;;;;2.33;1.83;;;;;;;22.49;100.00;94357.66;10533409;28;20023;-73
2021/06/20 15:54:35;;;;;;;4.30;2.53;;;;;;;22.57;100.00;94355.88;10532132;28;20054;-73
2021/06/20 15:59:35;;;;;;;8.23;2.90;;;;;;;22.60;100.00;94353.19;10532745;28;20027;-73
2021/06/20 16:04:35;;;;;;;4.50;1.45;;;;;;;;;;10532958;28;20123;-72
2021/06/20 16:09:37;;;;;;;5.88;2.13;;;;;;;22.66;100.00;94354.53;10531932;28;20039;-73
2021/06/20 16:14:37;;;;;;;4.13;2.08;;;;;;;22.76;100.00;94360.56;10530615;28;20368;-73
2021/06/20 16:19:38;;;;;;;2.30;1.77;;;;;;;22.94;100.00;94358.19;10531403;28;20036;-73
2021/06/20 16:24:38;;;;;;;1.40;1.30;;;;;;;23.09;100.00;94364.75;10530602;28;20026;-73
2021/06/20 16:29:39;;;;;;;5.10;1.60;;;;;;;23.23;100.00;94359.53;10531303;28;20773;-73
2021/06/20 16:34:39;;;;;;;4.30;1.73;;;;;;;23.10;100.00;94361.63;10531407;28;20040;-73
2021/06/20 16:39:43;;;;;;;1.85;1.42;;;;;;;23.20;100.00;94365.75;10531156;28;20028;-73
2021/06/20 16:44:44;;;;;;;3.65;1.70;;;;;;;23.18;100.00;94360.66;10531118;28;20081;-73
2021/06/20 16:49:45;;;;;;;2.03;1.52;;;;;;;23.08;100.00;94376.84;10531625;28;20028;-73
2021/06/20 16:54:54;;;;;;;7.30;1.70;;;;;;;22.68;100.00;94382.34;10529672;28;20036;-73
2021/06/20 16:59:55;;;;;;;4.10;1.83;;;;;;;22.36;100.00;94381.66;10543532;28;20027;-73
2021/06/20 17:04:56;;;;;;;12.20;2.28;;;;;;;22.28;100.00;94386.13;10530624;28;20028;-73
2021/06/20 17:09:56;;;;;;;2.87;1.77;;;;;;;22.11;100.00;94390.03;10530096;28;20371;-72
2021/06/20 17:14:56;;;;;;;6.63;3.20;;;;;;;22.02;100.00;94389.47;10530268;28;20024;-73
2021/06/20 17:19:57;;;;;;;2.93;2.00;;;;;;;21.98;100.00;94389.38;10530203;28;20032;-72
2021/06/20 17:24:57;;;;;;;2.67;2.00;;;;;;;21.84;100.00;94391.75;10529631;28;20301;-73
2021/06/20 17:29:59;;;;;;;2.50;1.70;;;;;;;21.78;100.00;94393.16;10529960;28;20028;-72
2021/06/20 17:34:59;;;;;;;3.47;1.90;;;;;;;21.61;100.00;94384.16;10528112;28;20521;-75
2021/06/20 17:40:00;;;;;;;4.43;1.97;;;;;;;21.48;100.00;94375.22;10504061;28;20024;-73
2021/06/20 17:45:02;;;;;;;6.10;2.28;;;;;;;21.44;100.00;94385.25;10487608;28;20077;-73
2021/06/20 17:50:04;;;;;;;3.47;2.00;;;;;;;21.36;100.00;94380.75;10487061;28;20109;-73
2021/06/20 17:55:06;;;;;;;6.68;2.47;;;;;;;21.20;100.00;94397.13;10487023;28;20032;-73
2021/06/20 18:00:07;;;;;;;4.90;2.20;;;;;;;21.10;100.00;94398.44;10487134;28;20111;-73
2021/06/20 18:05:09;;;;;;;9.50;2.70;;;;;;;21.15;100.00;94405.56;10486098;28;20020;-73
2021/06/20 18:10:12;;;;;;;4.32;2.58;;;;;;;21.11;100.00;94416.44;10486250;28;20032;-73
2021/06/20 18:15:13;;;;;;;12.32;3.55;;;;;;;21.05;100.00;94417.00;10484837;28;20473;-73
2021/06/20 18:20:14;;;;;;;8.95;3.50;;;;;;;21.00;100.00;94410.66;10486400;28;20105;-73
2021/06/20 18:25:14;;;;;;;7.80;3.85;;;;;;;20.98;100.00;94423.06;10486686;28;20028;-73
2021/06/20 18:30:16;;;;;;;6.45;2.97;;;;;;;20.60;100.00;94422.34;10486101;28;20046;-73
2021/06/20 18:35:16;;;;;;;10.35;4.35;;;;;;;20.53;100.00;94422.13;10485814;28;20132;-73
2021/06/20 18:40:19;;;;;;;7.10;3.60;;;;;;;20.53;100.00;94422.13;10486220;28;20032;-73
2021/06/20 18:45:20;;;;;;;11.75;4.57;;;;;;;20.34;100.00;94427.41;10485995;28;20713;-73
2021/06/20 18:50:20;;;;;;;7.88;3.72;;;;;;;20.28;100.00;94424.91;10485975;28;20116;-73
2021/06/20 18:55:21;;;;;;;9.70;4.47;;;;;;;20.25;100.00;94431.03;10485968;28;20035;-73
2021/06/20 19:00:22;;;;;;;12.55;5.03;;;;;;;20.18;100.00;94436.28;10485539;28;20037;-73
2021/06/20 19:05:22;;;;;;;8.57;4.10;;;;;;;20.09;100.00;94449.22;10501315;28;20021;-73
2021/06/20 19:10:24;;;;;;;15.23;4.50;;;;;;;20.01;100.00;94450.94;10497958;28;20028;-73
2021/06/20 19:15:26;;;;;;;6.50;3.50;;;;;;;19.79;100.00;94469.31;10526167;28;20039;-73
2021/06/20 19:20:29;;;;;;;7.15;3.88;;;;;;;19.74;100.00;94471.44;10531313;28;20032;-73
2021/06/20 19:25:31;;;;;;;6.95;3.10;;;;;;;19.70;100.00;94492.34;10532492;28;20028;-73
2021/06/20 19:30:31;;;;;;;6.53;3.67;;;;;;;19.62;100.00;94492.09;10533348;28;20035;-73
2021/06/20 19:35:32;;;;;;;9.40;3.53;;;;;;;19.51;100.00;94507.28;10504421;28;20056;-73
2021/06/20 19:40:33;;;;;;;8.27;3.67;;;;;;;19.33;100.00;94512.09;10492741;28;20274;-73
2021/06/20 19:45:36;;;;;;;8.13;3.90;;;;;;;19.11;100.00;94521.41;10492146;28;20093;-73
2021/06/20 19:50:37;;;;;;;5.63;4.05;;;;;;;19.10;100.00;94520.63;10492270;28;20166;-73
2021/06/20 19:55:38;;;;;;;9.20;4.00;;;;;;;19.10;100.00;94519.81;10492030;28;20150;-73
2021/06/20 20:00:40;;;;;;;11.98;4.70;;;;;;;18.96;100.00;94509.19;10491240;28;20039;-73
2021/06/20 20:05:40;;;;;;;9.13;5.30;;;;;;;18.64;100.00;94513.38;10490878;28;20020;-73
2021/06/20 20:10:41;;;;;;;12.73;5.13;;;;;;;18.64;100.00;94522.34;10509888;28;20024;-73
2021/06/20 20:15:41;;;;;;;17.10;4.90;;;;;;;18.53;100.00;94508.34;10532809;28;20032;-73
2021/06/20 20:20:42;;;;;;;11.52;4.95;;;;;;;18.58;100.00;94510.84;10532704;28;20036;-73
2021/06/20 20:25:42;;;;;;;11.87;4.67;;;;;;;18.55;100.00;94511.50;10532544;28;20860;-73
2021/06/20 20:30:43;;;;;;;9.33;3.93;;;;;;;18.30;100.00;94520.63;10530431;28;20277;-73
2021/06/20 20:35:43;;;;;;;8.70;3.53;;;;;;;18.13;100.00;94500.53;10530251;28;20700;-73
2021/06/20 20:40:44;;;;;;;13.20;3.77;;;;;;;18.04;100.00;94494.31;10531694;28;20027;-73
2021/06/20 20:45:45;;;;;;;12.13;3.42;;;;;;;18.11;100.00;94500.03;10531376;28;20048;-73
2021/06/20 20:50:46;;;;;;;12.38;3.97;;;;;;;18.06;100.00;94489.38;10531475;28;20036;-73
2021/06/20 20:55:46;;;;;;;6.07;3.20;;;;;;;18.06;100.00;94495.59;10531386;28;20032;-73
2021/06/20 21:00:47;;;;;;;4.93;2.83;;;;;;;18.06;100.00;94486.66;10531247;28;20288;-73
2021/06/20 21:05:47;;;;;;;5.40;2.70;;;;;;;17.97;100.00;94488.59;10530783;28;20024;-73
2021/06/20 21:10:48;;;;;;;6.67;2.53;;;;;;;17.83;100.00;94502.38;10530803;28;20027;-73
2021/06/20 21:15:48;;;;;;;5.45;2.33;;;;;;;17.71;100.00;94492.19;10506829;28;20075;-73
2021/06/20 21:20:49;;;;;;;7.10;2.65;;;;;;;17.62;100.00;94496.84;10504416;28;20017;-73
2021/06/20 21:25:49;;;;;;;4.20;2.43;;;;;;;17.58;100.00;94489.34;10488280;28;20107;-73
2021/06/20 21:30:50;;;;;;;4.80;2.60;;;;;;;17.56;100.00;94488.06;10488423;28;20847;-73
2021/06/20 21:35:50;;;;;;;3.83;2.30;;;;;;;17.57;100.00;94501.31;10487555;28;20032;-73
2021/06/20 21:40:50;;;;;;;6.55;2.30;;;;;;;17.59;100.00;94492.84;10486947;28;20025;-73
2021/06/20 21:45:51;;;;;;;5.13;2.50;;;;;;;17.55;100.00;94491.88;10488141;28;20032;-73
2021/06/20 21:50:51;;;;;;;5.97;3.00;;;;;;;17.42;100.00;94485.53;10487670;28;20371;-73
2021/06/20 21:55:52;;;;;;;7.80;3.07;;;;;;;17.40;100.00;94490.47;10487416;28;20025;-73
2021/06/20 22:00:53;;;;;;;3.67;2.42;;;;;;;17.23;100.00;94483.97;10487681;28;20024;-73
2021/06/20 22:05:53;;;;;;;7.40;2.72;;;;;;;17.25;100.00;94481.72;10487163;28;20028;-73
2021/06/20 22:10:54;;;;;;;4.55;2.63;;;;;;;17.38;100.00;94484.56;10486878;28;20443;-73
2021/06/20 22:15:54;;;;;;;4.30;2.65;;;;;;;17.44;100.00;94483.28;10486779;28;20383;-73
2021/06/20 22:20:54;;;;;;;2.93;2.27;;;;;;;17.10;100.00;94482.22;10486764;28;20085;-73
2021/06/20 22:25:55;;;;;;;4.07;2.53;;;;;;;16.90;100.00;94479.03;10486416;28;20279;-73
2021/06/20 22:30:55;;;;;;;3.05;2.33;;;;;;;16.84;100.00;94477.56;10486511;28;20044;-73
2021/06/20 22:35:56;;;;;;;4.20;2.20;;;;;;;16.73;100.00;94482.50;10486192;28;20048;-73
2021/06/20 22:40:57;;;;;;;4.78;2.25;;;;;;;16.65;100.00;94482.50;10486481;28;20029;-73
2021/06/20 22:45:58;;;;;;;2.67;2.30;;;;;;;16.53;100.00;94473.06;10486309;28;20029;-73
2021/06/20 22:50:58;;;;;;;5.87;2.47;;;;;;;16.35;100.00;94471.44;10487153;28;20807;-73
2021/06/20 22:55:59;;;;;;;10.95;2.20;;;;;;;16.22;100.00;94467.75;10494385;28;20040;-73
2021/06/20 23:00:59;;;;;;;3.22;2.53;;;;;;;16.15;100.00;94480.97;10494075;28;20028;-73
2021/06/20 23:06:00;;;;;;;5.50;2.97;;;;;;;16.19;100.00;94479.22;10494038;28;20067;-73
2021/06/20 23:11:00;;;;;;;3.40;2.93;;;;;;;16.34;100.00;94467.13;10493402;28;20020;-73